x

Yucatan Basin - 120 Nm Ese Of Cozumel, Mx (42056) Wave Buoy

5:50am - Thu 28th May 2015 All times are CDT. -5 hours from GMT.

  • Sig Wave height 3.3ft
  • Swell Direction
  • Peak Period 8s
  • Average Period 5s
  • Wind
    13mph, 18mph gusts
  • Sea Temp 83°f
  • Air Temp 82°f
  • Sea Pressure 1014.1mb
  •  Yucatan Basin - 120 Nm Ese Of Cozumel, Mx
  •  Yucatan Basin - 120 Nm Ese Of Cozumel, Mx

More Historic Weather Station data

Upgrade to MSW Pro to gain access to the past 30 days of data for over 8000 Wavebouys and Weather Stations around the globe.

Join Pro

Comparision Forecast

View Surf forecast
   
Thu 05/28 5:50am 3.5ft 8s 5s 13 18 mph 1014.1mb 83f 82f
4:50am 3.5ft 7s 5s 13 16 mph 1013.8mb 83f 82f
3:50am 3.5ft 6s 5s 11 13 mph 1013.8mb 83f 82f
2:50am 3.5ft 8s 5s 11 13 mph 1013.8mb 83f 82f
1:50am 3.5ft 7s 5s 11 13 mph 1014mb 83f 82f
12:50am 4ft 6s 5s 11 13 mph 1014.9mb 83f 82f
Wed 05/27 11:50pm 4ft 6s 5s 11 16 mph 1015.3mb 83f 82f
10:50pm 4ft 6s 5s 13 16 mph 1015.3mb 83f 82f
9:50pm 4ft 6s 5s 16 18 mph 1015.2mb 84f 83f
8:50pm 4.5ft 5s 5s 16 18 mph 1015.2mb 84f 83f
7:50pm 4.5ft 6s 5s 16 18 mph 1014.9mb 84f 83f
6:50pm 4.5ft 6s 5s 16 18 mph 1014.5mb 84f 83f
5:50pm 4.5ft 5s 5s 13 18 mph 1014.2mb 84f 83f
4:50pm 4.5ft 6s 5s 13 16 mph 1013.9mb 84f 83f
3:50pm 4.5ft 8s 5s 16 18 mph 1014.2mb 84f 83f
2:50pm 4.5ft 8s 5s 18 20 mph 1014.7mb 84f 83f
1:50pm 4.5ft 7s 5s 18 20 mph 1015.2mb 84f 83f
12:50pm 4.5ft 7s 5s 18 20 mph 1016.2mb 84f 83f
11:50am 3.5ft 8s 5s 18 20 mph 1016.4mb 84f 83f
10:50am 4ft 8s 5s 16 18 mph 1016.5mb 84f 83f
9:50am 3.5ft 9s 5s 16 18 mph 1016.6mb 83f 83f
8:50am 3.5ft 8s 5s 16 18 mph 1016.6mb 83f 83f
7:50am 3.5ft 8s 5s 13 16 mph 1016mb 83f 82f
6:50am 4ft 9s 5s 13 16 mph 1015.7mb 83f 82f
5:50am 4ft 8s 5s 11 16 mph 1015.1mb 83f 82f
4:50am 4ft 8s 5s 13 16 mph 1015mb 83f 82f
3:50am 4ft 7s 6s 11 13 mph 1014.6mb 83f 82f
2:50am 4ft 7s 5s 11 13 mph 1014.7mb 83f 82f
1:50am 4ft 8s 5s 11 13 mph 1015.2mb 83f 82f
12:50am 3.5ft 8s 5s 11 13 mph 1015.8mb 83f 82f
Tue 05/26 11:50pm 3.5ft 8s 5s 11 13 mph 1016.2mb 83f 82f
10:50pm 4ft 8s 5s 13 16 mph 1016.4mb 83f 82f
9:50pm 3.5ft 8s 5s 13 16 mph 1016.4mb 84f 82f
8:50pm 4ft 8s 5s 13
mph
1016mb 84f 83f
7:50pm 4ft 5s 5s 16 18 mph 1015.3mb 84f 83f
6:50pm 4ft 6s 5s 16 18 mph 1015mb 84f 83f
5:50pm 4ft 5s 5s 16 18 mph 1014.8mb 84f 83f
4:50pm 3.5ft 6s 5s 16 18 mph 1014.7mb 84f 83f
3:50pm 3.5ft 8s 5s 16
mph
1015.3mb 84f 83f
2:50pm 3.5ft 7s 5s 13 16 mph 1015.7mb 84f 83f
1:50pm 3.5ft 8s 5s 16 18 mph 1016.2mb 84f 83f
12:50pm 3.5ft 6s 5s 13 16 mph 1016.6mb 84f 83f
11:50am 3.5ft 6s 5s 13 18 mph 1017.1mb 84f 83f
10:50am 3.5ft 9s 5s 13 16 mph 1017.2mb 84f 83f
9:50am 3.5ft 8s 5s 13 16 mph 1017mb 83f 83f
8:50am 3.5ft 8s 5s 13 16 mph 1016.7mb 83f 83f
7:50am 3.5ft 9s 5s 13 18 mph 1016.5mb 83f 83f
6:50am 3.5ft 9s 5s 13 16 mph 1016.1mb 83f 83f
5:50am 3.5ft 8s 5s 13 16 mph 1015.4mb 83f 82f
4:50am 3ft 9s 5s 13 16 mph 1014.8mb 83f 82f
3:50am 3.5ft 9s 5s 13 16 mph 1014.5mb 83f 82f
2:50am 3.5ft 8s 5s 13 16 mph 1014.7mb 83f 83f
1:50am 3.5ft 8s 5s 11 16 mph 1015.1mb 83f 83f
12:50am 3.5ft 6s 5s 11 13 mph 1015.9mb 83f 83f
Mon 05/25 11:50pm 3.5ft 7s 5s 13 16 mph 1016.2mb 83f 83f
10:50pm 3.5ft 9s 5s 16 18 mph 1016.6mb 83f 83f
9:50pm 3.5ft 6s 5s 16 20 mph 1016.2mb 84f 83f
8:50pm 3.5ft 8s 5s 16 18 mph 1015.8mb 84f 83f
7:50pm 3.5ft 8s 5s 16 18 mph 1015.6mb 84f 83f
6:50pm 3.5ft 8s 5s 13 16 mph 1015.2mb 84f 83f
5:50pm 3.5ft 7s 5s 11 13 mph 1015.1mb 84f 84f
4:50pm 3.5ft 8s 5s 13 16 mph 1014.9mb 84f 83f
3:50pm 3.5ft 8s 5s 16 18 mph 1014.9mb 84f 83f
2:50pm 3.5ft 8s 5s 13 18 mph 1015.4mb 84f 83f
1:50pm 3.5ft 8s 5s 16 18 mph 1015.9mb 84f 83f
12:50pm 3.5ft 7s 5s 13 18 mph 1016.5mb 83f 83f
11:50am 3.5ft 7s 5s 13 18 mph 1016.6mb 83f 83f
10:50am 3.5ft 6s 5s 13 18 mph 1016.8mb 83f 83f
9:50am 3.5ft 8s 5s 11 16 mph 1016.6mb 83f 83f
8:50am 3.5ft 8s 5s 13 16 mph 1016.5mb 83f 83f
7:50am 3.5ft 6s 5s 13 16 mph 1016.1mb 83f 83f
6:50am 3.5ft 6s 5s 11 13 mph 1015.9mb 83f 82f
5:50am 3.5ft 8s 5s 11 13 mph 1015.4mb 83f 82f
4:50am 3.5ft 6s 5s 11 16 mph 1015.6mb 83f 82f
3:50am 3.5ft 8s 5s 11 13 mph 1015.3mb 83f 82f
2:50am 3.5ft 7s 5s 11 13 mph 1015.4mb 83f 83f
1:50am 3.5ft 8s 5s 13 16 mph 1015.7mb 83f 83f
12:50am 3.5ft 8s 5s 13 16 mph 1016.1mb 83f 83f
Sun 05/24 11:50pm 3.5ft 6s 5s 16 18 mph 1016.6mb 83f 83f
10:50pm 3ft 7s 5s 16 20 mph 1016.7mb 83f 83f
9:50pm 3ft 5s 5s 16 18 mph 1016.5mb 83f 82f
8:50pm 3.5ft 6s 5s 16 18 mph 1015.8mb 83f 83f
7:50pm 3.5ft 6s 4s 13 16 mph 1015.6mb 83f 83f
6:50pm 3.5ft 5s 4s 13 16 mph 1015.1mb 83f 83f
5:50pm 3.5ft 6s 4s 13 16 mph 1015.2mb 83f 83f
4:50pm 3.5ft 6s 4s 13 16 mph 1015mb 83f 83f
3:50pm 3.5ft 8s 4s 16 18 mph 1015.5mb 83f 83f
2:50pm 3.5ft 6s 4s 13 16 mph 1015.7mb 83f 83f
1:50pm 3.5ft 6s 4s 13 18 mph 1016.1mb 83f 83f
12:50pm 3ft 6s 4s 13 16 mph 1016.3mb 83f 83f